createdAt,value
2022-11-27T00:01:28.037Z,19.10
2022-11-27T00:03:56.598Z,38.17
2022-11-27T00:06:26.344Z,20.93
2022-11-27T00:08:53.612Z,26.53
2022-11-27T00:11:23.490Z,36.33
2022-11-27T00:13:51.199Z,32.87
2022-11-27T00:16:19.199Z,41.23
2022-11-27T00:18:46.642Z,30.83
2022-11-27T00:21:25.360Z,61.53
2022-11-27T00:23:53.614Z,61.13
2022-11-27T00:26:21.541Z,84.47
2022-11-27T00:28:48.818Z,84.23
2022-11-27T00:31:18.648Z,40.20
2022-11-27T00:33:46.086Z,45.90
2022-11-27T00:36:14.334Z,55.43
2022-11-27T00:38:41.913Z,28.57
2022-11-27T00:41:10.880Z,25.37
2022-11-27T00:43:44.099Z,24.60
2022-11-27T00:46:16.631Z,23.73
2022-11-27T00:48:44.385Z,17.57
2022-11-27T00:51:14.353Z,38.47
2022-11-27T00:53:41.975Z,25.90
2022-11-27T00:56:09.427Z,20.57
2022-11-27T00:58:36.486Z,56.50
2022-11-27T01:01:06.279Z,29.13
2022-11-27T01:03:34.994Z,61.43
2022-11-27T01:06:06.719Z,37.03
2022-11-27T01:08:34.861Z,47.13
2022-11-27T01:11:02.361Z,34.80
2022-11-27T01:13:32.366Z,27.83
2022-11-27T01:16:07.511Z,43.67
2022-11-27T01:18:36.116Z,38.07
2022-11-27T01:21:03.950Z,77.23
2022-11-27T01:23:31.356Z,39.90
2022-11-27T01:26:04.364Z,47.03
2022-11-27T01:28:31.559Z,49.43
2022-11-27T01:30:59.040Z,52.30
2022-11-27T01:33:26.184Z,50.37
2022-11-27T01:36:02.063Z,77.53
2022-11-27T01:38:30.865Z,77.30
2022-11-27T01:41:06.157Z,72.20
2022-11-27T01:43:57.115Z,25.00
2022-11-27T01:46:45.694Z,31.03
2022-11-27T01:49:34.018Z,29.47
2022-11-27T01:52:20.898Z,21.87
2022-11-27T01:55:02.591Z,23.20
2022-11-27T01:57:36.119Z,23.07
2022-11-27T02:00:11.303Z,25.23
2022-11-27T02:02:43.527Z,34.77
2022-11-27T02:05:14.760Z,27.30
2022-11-27T02:07:41.962Z,19.40
2022-11-27T02:10:09.676Z,23.97
2022-11-27T02:13:09.602Z,21.47
2022-11-27T02:16:32.369Z,27.27
2022-11-27T02:19:32.607Z,29.73
2022-11-27T02:23:04.034Z,40.53
2022-11-27T02:32:07.401Z,34.47
2022-11-27T02:34:46.391Z,33.20
2022-11-27T02:37:42.770Z,34.00
2022-11-27T02:43:33.521Z,47.53
2022-11-27T02:46:03.192Z,42.57
2022-11-27T02:48:45.485Z,85.23
2022-11-27T02:51:15.032Z,49.63
2022-11-27T02:53:49.883Z,68.70
2022-11-27T02:56:20.432Z,49.80
2022-11-27T02:58:48.354Z,26.00
2022-11-27T03:01:18.220Z,37.43
2022-11-27T03:03:51.251Z,41.83
2022-11-27T03:06:26.716Z,36.90
2022-11-27T03:09:28.034Z,32.43
2022-11-27T03:11:56.560Z,38.27
2022-11-27T03:14:24.965Z,42.07
2022-11-27T03:17:19.382Z,29.30
2022-11-27T03:19:54.147Z,26.90
2022-11-27T03:22:21.225Z,30.30
2022-11-27T03:24:50.021Z,31.23
2022-11-27T03:27:25.963Z,33.97
2022-11-27T03:29:56.682Z,48.63
2022-11-27T03:32:25.692Z,34.47
2022-11-27T03:34:53.057Z,34.70
2022-11-27T03:37:20.477Z,29.33
2022-11-27T03:39:47.550Z,42.30
2022-11-27T03:42:46.183Z,53.87
2022-11-27T03:45:52.419Z,62.47
2022-11-27T03:48:52.734Z,83.87
2022-11-27T03:51:37.105Z,94.83
2022-11-27T03:54:45.049Z,44.13
2022-11-27T03:57:33.396Z,59.23
2022-11-27T04:00:04.923Z,52.07
2022-11-27T04:02:42.012Z,42.37
2022-11-27T04:05:09.744Z,42.43
2022-11-27T04:07:37.000Z,42.80
2022-11-27T04:10:05.521Z,62.50
2022-11-27T04:12:32.566Z,58.30
2022-11-27T04:14:59.574Z,51.93
2022-11-27T04:17:26.780Z,51.70
2022-11-27T04:19:53.855Z,56.13
2022-11-27T04:22:20.927Z,87.03
2022-11-27T04:24:48.025Z,49.33
2022-11-27T04:27:15.187Z,51.53
2022-11-27T04:29:42.268Z,50.03
2022-11-27T04:32:09.444Z,36.67
2022-11-27T04:34:36.474Z,31.97
2022-11-27T04:37:03.571Z,32.90
2022-11-27T04:39:30.966Z,31.87
2022-11-27T04:41:58.010Z,27.40
2022-11-27T04:44:25.123Z,28.03
2022-11-27T04:46:52.197Z,29.53
2022-11-27T04:49:19.262Z,33.13
2022-11-27T04:51:46.292Z,37.57
2022-11-27T04:54:13.336Z,39.47
2022-11-27T04:56:40.469Z,36.20
2022-11-27T04:59:07.571Z,43.47
2022-11-27T05:01:34.879Z,36.47
2022-11-27T05:04:01.974Z,41.17
2022-11-27T05:06:29.069Z,36.83
2022-11-27T05:09:00.323Z,37.43
2022-11-27T05:11:27.577Z,37.43
2022-11-27T05:14:14.704Z,41.23
2022-11-27T05:16:46.155Z,35.53
2022-11-27T05:19:14.987Z,36.33
2022-11-27T05:21:42.805Z,31.47
2022-11-27T05:24:10.702Z,29.43
2022-11-27T05:26:38.962Z,35.07
2022-11-27T05:29:06.701Z,29.17
2022-11-27T05:31:34.039Z,30.67
2022-11-27T05:34:01.931Z,25.87
2022-11-27T05:36:29.485Z,32.30
2022-11-27T05:38:56.498Z,26.80
2022-11-27T05:41:23.614Z,28.80
2022-11-27T05:43:50.708Z,28.43
2022-11-27T05:46:20.891Z,30.73
2022-11-27T05:48:48.394Z,28.23
2022-11-27T05:51:16.643Z,27.80
2022-11-27T05:53:43.802Z,26.53
2022-11-27T05:56:14.129Z,28.07
2022-11-27T05:58:42.227Z,29.07
2022-11-27T06:01:10.817Z,27.97
2022-11-27T06:03:39.289Z,28.10
2022-11-27T06:06:08.342Z,28.53
2022-11-27T06:08:37.753Z,31.50
2022-11-27T06:11:16.583Z,28.10
2022-11-27T06:13:44.081Z,25.50
2022-11-27T06:16:17.967Z,30.13
2022-11-27T06:18:45.512Z,29.40
2022-11-27T06:21:14.913Z,29.77
2022-11-27T06:23:43.075Z,31.33
2022-11-27T06:26:16.906Z,33.47
2022-11-27T06:28:44.659Z,32.03
2022-11-27T06:31:18.022Z,32.50
2022-11-27T06:33:46.697Z,29.00
2022-11-27T06:36:13.765Z,30.83
2022-11-27T06:38:41.259Z,25.13
2022-11-27T06:41:14.294Z,29.47
2022-11-27T06:43:41.371Z,29.17
2022-11-27T06:46:12.773Z,29.20
2022-11-27T06:48:39.906Z,25.70
2022-11-27T06:51:08.398Z,27.27
2022-11-27T06:53:37.551Z,26.13
2022-11-27T06:56:06.187Z,28.87
2022-11-27T06:58:33.287Z,25.50
2022-11-27T07:01:01.555Z,28.20
2022-11-27T07:03:29.063Z,26.57
2022-11-27T07:05:59.397Z,25.07
2022-11-27T07:08:26.562Z,24.43
2022-11-27T07:10:53.660Z,23.37
2022-11-27T07:13:20.751Z,24.23
2022-11-27T07:15:47.804Z,26.13
2022-11-27T07:18:14.803Z,22.13
2022-11-27T07:20:41.950Z,21.47
2022-11-27T07:23:08.944Z,19.53
2022-11-27T07:25:38.087Z,21.50
2022-11-27T07:28:05.096Z,20.30
2022-11-27T07:30:32.106Z,20.80
2022-11-27T07:32:59.211Z,21.13
2022-11-27T07:35:26.307Z,23.77
2022-11-27T07:37:53.322Z,20.53
2022-11-27T07:40:20.477Z,21.77
2022-11-27T07:42:47.582Z,21.30
2022-11-27T07:45:17.578Z,24.23
2022-11-27T07:47:44.656Z,23.87
2022-11-27T07:50:12.588Z,24.70
2022-11-27T07:52:42.185Z,21.10
2022-11-27T07:55:09.733Z,20.03
2022-11-27T07:57:37.013Z,21.37
2022-11-27T08:00:05.136Z,22.83
2022-11-27T08:02:32.151Z,21.17
2022-11-27T08:04:59.260Z,17.37
2022-11-27T08:07:29.614Z,17.40
2022-11-27T08:10:00.407Z,17.40
2022-11-27T08:12:27.549Z,16.63
2022-11-27T08:14:54.566Z,17.30
2022-11-27T08:17:21.655Z,17.60
2022-11-27T08:19:48.699Z,17.20
2022-11-27T08:22:19.590Z,16.80
2022-11-27T08:24:48.283Z,16.93
2022-11-27T08:27:16.510Z,19.30
2022-11-27T08:29:44.011Z,17.90
2022-11-27T08:32:11.695Z,16.60
2022-11-27T08:34:39.228Z,15.20
2022-11-27T08:37:07.351Z,16.27
2022-11-27T08:39:34.368Z,18.17
2022-11-27T08:42:01.528Z,15.50
2022-11-27T08:44:28.506Z,15.90
2022-11-27T08:46:55.562Z,16.47
2022-11-27T08:49:22.836Z,16.10
2022-11-27T08:51:49.906Z,15.30
2022-11-27T08:54:17.033Z,16.07
2022-11-27T08:56:44.033Z,14.43
2022-11-27T08:59:11.491Z,14.47
2022-11-27T09:01:38.645Z,14.60
2022-11-27T09:04:05.789Z,14.67
2022-11-27T09:06:37.117Z,15.93
2022-11-27T09:09:05.801Z,16.03
2022-11-27T09:11:34.286Z,15.53
2022-11-27T09:14:02.583Z,15.27
2022-11-27T09:16:30.924Z,15.40
2022-11-27T09:18:58.552Z,14.70
2022-11-27T09:21:33.320Z,14.27
2022-11-27T09:24:01.697Z,13.63
2022-11-27T09:26:29.556Z,14.57
2022-11-27T09:28:58.656Z,13.50
2022-11-27T09:31:26.390Z,12.50
2022-11-27T09:33:53.937Z,12.03
2022-11-27T09:36:23.385Z,14.57
2022-11-27T09:38:50.723Z,14.30
2022-11-27T09:41:52.871Z,13.00
2022-11-27T09:44:45.493Z,12.67
2022-11-27T09:47:26.851Z,12.80
2022-11-27T09:50:00.403Z,12.40
2022-11-27T09:52:41.844Z,11.73
2022-11-27T09:55:37.859Z,12.13
2022-11-27T09:58:19.124Z,11.27
2022-11-27T10:00:47.008Z,11.77
2022-11-27T10:03:17.006Z,11.53
2022-11-27T10:06:28.714Z,11.93
2022-11-27T10:09:46.490Z,11.27
2022-11-27T10:12:55.208Z,11.20
2022-11-27T10:15:48.833Z,11.90
2022-11-27T10:18:34.713Z,11.73
2022-11-27T10:21:22.026Z,11.27
2022-11-27T10:24:10.345Z,13.13
2022-11-27T10:26:48.565Z,12.10
2022-11-27T10:29:50.277Z,11.00
2022-11-27T10:32:54.804Z,11.53
2022-11-27T10:35:24.360Z,11.10
2022-11-27T10:38:21.872Z,11.57
2022-11-27T10:41:49.181Z,10.80
2022-11-27T10:44:27.228Z,11.43
2022-11-27T10:47:01.681Z,10.70
2022-11-27T10:49:28.876Z,11.83
2022-11-27T10:51:55.873Z,11.33
2022-11-27T10:54:34.572Z,11.23
2022-11-27T10:57:40.299Z,12.00
2022-11-27T11:00:20.901Z,10.67
2022-11-27T11:02:48.092Z,12.43
2022-11-27T11:06:11.758Z,13.30
2022-11-27T11:08:18.951Z,12.73
2022-11-27T11:11:03.625Z,11.47
2022-11-27T11:13:33.650Z,12.97
2022-11-27T11:16:05.556Z,12.07
2022-11-27T11:18:34.933Z,12.10
2022-11-27T11:21:05.074Z,12.67
2022-11-27T11:23:38.442Z,12.97
2022-11-27T11:26:38.159Z,13.03
2022-11-27T11:29:17.876Z,15.73
2022-11-27T11:31:45.256Z,11.83
2022-11-27T11:34:28.936Z,10.90
2022-11-27T11:37:08.031Z,11.83
2022-11-27T11:39:47.683Z,12.17
2022-11-27T11:42:23.497Z,12.93
2022-11-27T11:44:56.424Z,11.50
2022-11-27T11:47:25.329Z,11.13
2022-11-27T11:49:53.832Z,11.13
2022-11-27T11:52:48.519Z,11.40
2022-11-27T11:55:25.780Z,10.77
2022-11-27T11:58:23.332Z,11.10
2022-11-27T12:01:25.515Z,12.33
2022-11-27T12:04:20.008Z,11.43
2022-11-27T12:07:21.441Z,12.33
2022-11-27T12:10:52.854Z,11.40
2022-11-27T12:13:59.741Z,11.13
2022-11-27T12:17:07.271Z,10.30
2022-11-27T12:20:13.798Z,11.17
2022-11-27T12:23:28.728Z,10.87
2022-11-27T12:26:34.132Z,12.77
2022-11-27T12:29:31.005Z,13.63
2022-11-27T12:32:32.415Z,14.30
2022-11-27T12:56:50.586Z,10.63
2022-11-27T12:59:43.674Z,10.33
2022-11-27T13:05:48.054Z,10.00
2022-11-27T13:11:28.426Z,9.63
2022-11-27T13:14:03.401Z,10.70
2022-11-27T13:16:45.962Z,10.30
2022-11-27T13:19:49.955Z,10.47
2022-11-27T13:22:27.573Z,14.27
2022-11-27T13:25:01.704Z,11.13
2022-11-27T13:27:32.845Z,11.57
2022-11-27T13:30:04.240Z,10.13
2022-11-27T13:32:40.337Z,10.93
2022-11-27T13:35:20.504Z,10.27
2022-11-27T13:37:50.043Z,9.57
2022-11-27T13:40:22.163Z,15.20
2022-11-27T13:42:55.821Z,14.90
2022-11-27T13:45:36.609Z,13.83
2022-11-27T13:48:38.783Z,13.03
2022-11-27T13:51:08.348Z,13.20
2022-11-27T13:53:40.826Z,12.87
2022-11-27T13:56:09.163Z,17.37
2022-11-27T13:58:41.497Z,15.80
2022-11-27T14:01:20.496Z,16.27
2022-11-27T14:03:48.130Z,16.27
2022-11-27T14:06:30.675Z,15.07
2022-11-27T14:09:04.159Z,14.53
2022-11-27T14:11:46.889Z,17.10
2022-11-27T14:14:23.011Z,15.77
2022-11-27T14:17:04.811Z,16.10
2022-11-27T14:19:40.046Z,16.00
2022-11-27T14:23:07.087Z,17.03
2022-11-27T14:25:31.208Z,17.50
2022-11-27T14:28:21.971Z,17.27
2022-11-27T14:30:52.954Z,15.90
2022-11-27T14:33:23.904Z,16.03
2022-11-27T14:35:54.286Z,16.20
2022-11-27T14:38:22.404Z,15.73
2022-11-27T14:40:53.270Z,16.00
2022-11-27T14:43:26.356Z,14.97
2022-11-27T14:45:58.934Z,15.53
2022-11-27T14:48:28.926Z,15.23
2022-11-27T14:50:56.847Z,15.00
2022-11-27T14:53:27.043Z,15.93
2022-11-27T14:55:57.588Z,14.67
2022-11-27T14:58:29.996Z,15.20
2022-11-27T15:01:07.094Z,14.57
2022-11-27T15:03:34.661Z,14.20
2022-11-27T15:06:07.308Z,14.73
2022-11-27T15:08:36.568Z,14.17
2022-11-27T15:11:05.587Z,14.60
2022-11-27T15:13:37.923Z,14.83
2022-11-27T15:16:14.142Z,14.87
2022-11-27T15:18:43.012Z,15.27
2022-11-27T15:21:12.614Z,13.70
2022-11-27T15:23:45.869Z,14.67
2022-11-27T15:26:26.004Z,15.50
2022-11-27T15:28:54.146Z,15.00
2022-11-27T15:31:53.243Z,15.93
2022-11-27T15:34:23.584Z,16.03
2022-11-27T15:37:06.398Z,16.27
2022-11-27T15:39:49.604Z,17.07
2022-11-27T15:42:17.726Z,15.40
2022-11-27T15:44:46.131Z,16.10
2022-11-27T15:47:35.243Z,15.53
2022-11-27T15:50:02.302Z,16.73
2022-11-27T15:52:29.540Z,16.60
2022-11-27T15:54:56.776Z,16.57
2022-11-27T15:57:24.530Z,16.67
2022-11-27T15:59:51.993Z,15.80
2022-11-27T16:02:19.485Z,16.10
2022-11-27T16:04:46.939Z,18.08
2022-11-27T16:07:14.317Z,17.37
2022-11-27T16:09:41.627Z,18.30
2022-11-27T16:12:09.027Z,16.97
2022-11-27T16:14:36.279Z,17.90
2022-11-27T16:17:03.398Z,17.33
2022-11-27T16:19:30.443Z,16.80
2022-11-27T16:21:57.456Z,18.73
2022-11-27T16:24:24.844Z,16.97
2022-11-27T16:26:51.863Z,17.43
2022-11-27T16:29:18.977Z,16.67
2022-11-27T16:31:47.038Z,16.90
2022-11-27T16:34:16.539Z,16.63
2022-11-27T16:36:43.955Z,17.20
2022-11-27T16:39:12.335Z,18.20
2022-11-27T16:41:40.028Z,17.80
2022-11-27T16:44:13.312Z,16.97
2022-11-27T16:46:41.580Z,17.40
2022-11-27T16:49:09.129Z,18.20
2022-11-27T16:51:38.306Z,17.27
2022-11-27T16:54:09.586Z,16.30
2022-11-27T16:56:38.513Z,16.27
2022-11-27T16:59:10.711Z,17.07
2022-11-27T17:01:38.835Z,18.10
2022-11-27T17:04:09.040Z,18.33
2022-11-27T17:06:38.315Z,17.70
2022-11-27T17:09:07.631Z,17.43
2022-11-27T17:11:36.648Z,16.43
2022-11-27T17:14:06.762Z,18.20
2022-11-27T17:16:38.785Z,16.97
2022-11-27T17:19:05.932Z,17.50
2022-11-27T17:21:34.915Z,15.93
2022-11-27T17:24:11.594Z,18.07
2022-11-27T17:26:43.750Z,17.50
2022-11-27T17:29:12.201Z,19.47
2022-11-27T17:31:39.973Z,19.93
2022-11-27T17:34:08.447Z,18.60
2022-11-27T17:36:37.503Z,18.03
2022-11-27T17:39:06.862Z,19.17
2022-11-27T17:41:35.030Z,17.97
2022-11-27T17:44:05.791Z,19.07
2022-11-27T17:46:33.698Z,18.30
2022-11-27T17:49:05.014Z,18.07
2022-11-27T17:51:35.706Z,16.93
2022-11-27T17:54:04.040Z,16.80
2022-11-27T17:56:33.492Z,17.33
2022-11-27T17:59:01.045Z,17.10
2022-11-27T18:01:30.263Z,16.90
2022-11-27T18:04:04.241Z,16.77
2022-11-27T18:06:32.473Z,17.07
2022-11-27T18:09:00.191Z,18.00
2022-11-27T18:11:30.339Z,17.40
2022-11-27T18:14:00.886Z,16.87
2022-11-27T18:16:32.644Z,18.17
2022-11-27T18:19:02.309Z,17.70
2022-11-27T18:21:29.412Z,17.10
2022-11-27T18:29:31.259Z,19.80
2022-11-27T18:31:58.422Z,19.60
2022-11-27T18:34:25.539Z,17.93
2022-11-27T18:36:57.319Z,18.23
2022-11-27T18:39:24.474Z,19.23
2022-11-27T18:41:51.980Z,18.60
2022-11-27T18:44:19.195Z,18.60
2022-11-27T18:46:46.253Z,17.53
2022-11-27T18:49:13.423Z,19.27
2022-11-27T18:51:40.790Z,19.17
2022-11-27T18:54:08.547Z,20.50
2022-11-27T18:56:37.247Z,20.43
2022-11-27T18:59:06.036Z,20.37
2022-11-27T19:01:41.366Z,20.03
2022-11-27T19:04:13.232Z,21.37
2022-11-27T19:06:42.413Z,19.70
2022-11-27T19:09:12.583Z,20.97
2022-11-27T19:11:40.468Z,19.50
2022-11-27T19:14:08.748Z,19.10
2022-11-27T19:16:43.965Z,19.27
2022-11-27T19:19:52.336Z,18.70
2022-11-27T19:22:01.270Z,19.20
2022-11-27T19:24:28.562Z,17.53
2022-11-27T19:26:58.045Z,19.13
2022-11-27T19:29:25.213Z,18.70
2022-11-27T19:31:55.139Z,18.70
2022-11-27T19:34:22.891Z,17.37
2022-11-27T19:36:50.211Z,17.43
2022-11-27T19:39:17.413Z,17.43
2022-11-27T19:41:44.548Z,17.33
2022-11-27T19:44:13.382Z,17.17
2022-11-27T19:46:41.289Z,17.07
2022-11-27T19:49:15.515Z,16.27
2022-11-27T19:51:42.839Z,15.93
2022-11-27T19:54:13.288Z,17.70
2022-11-27T19:56:42.596Z,17.13
2022-11-27T19:59:12.293Z,16.53
2022-11-27T20:01:41.804Z,15.00
2022-11-27T20:04:11.666Z,15.10
2022-11-27T20:06:39.201Z,15.07
2022-11-27T20:09:06.978Z,17.23
2022-11-27T20:11:35.686Z,17.50
2022-11-27T20:14:05.780Z,16.90
2022-11-27T20:16:35.215Z,14.50
2022-11-27T20:19:05.649Z,16.70
2022-11-27T20:21:34.938Z,15.57
2022-11-27T20:24:04.436Z,15.83
2022-11-27T20:26:37.143Z,14.97
2022-11-27T20:29:08.359Z,15.87
2022-11-27T20:31:37.983Z,14.53
2022-11-27T20:34:06.177Z,14.60
2022-11-27T20:36:35.367Z,14.17
2022-11-27T20:39:02.801Z,14.83
2022-11-27T20:41:30.604Z,15.63
2022-11-27T20:44:00.636Z,15.83
2022-11-27T20:46:29.724Z,15.07
2022-11-27T20:48:57.250Z,15.90
2022-11-27T20:51:28.696Z,16.67
2022-11-27T20:53:57.863Z,15.37
2022-11-27T20:56:25.821Z,16.23
2022-11-27T20:58:53.944Z,16.83
2022-11-27T21:01:29.803Z,17.80
2022-11-27T21:03:58.763Z,16.00
2022-11-27T21:06:29.780Z,16.60
2022-11-27T21:08:59.717Z,15.73
2022-11-27T21:11:29.808Z,17.50
2022-11-27T21:14:09.791Z,16.37
2022-11-27T21:16:42.102Z,17.10
2022-11-27T21:19:18.119Z,17.33
2022-11-27T21:21:45.289Z,16.50
2022-11-27T21:24:13.340Z,16.17
2022-11-27T21:26:41.667Z,15.07
2022-11-27T21:29:10.156Z,15.20
2022-11-27T21:31:38.476Z,16.03
2022-11-27T21:34:09.145Z,16.53
2022-11-27T21:36:38.089Z,16.57
2022-11-27T21:39:11.155Z,16.30
2022-11-27T21:41:38.506Z,16.13
2022-11-27T21:44:06.057Z,16.73
2022-11-27T21:46:33.943Z,17.73
2022-11-27T21:49:04.972Z,16.93
2022-11-27T21:51:32.587Z,18.37
2022-11-27T21:54:07.575Z,19.07
2022-11-27T21:56:37.915Z,17.33
2022-11-27T21:59:06.724Z,16.30
2022-11-27T22:01:33.952Z,16.47
2022-11-27T22:04:01.176Z,15.87
2022-11-27T22:06:31.048Z,16.37
2022-11-27T22:08:59.133Z,15.70
2022-11-27T22:11:30.456Z,16.33
2022-11-27T22:14:06.401Z,16.33
2022-11-27T22:16:40.000Z,18.10
2022-11-27T22:19:11.933Z,19.33
2022-11-27T22:21:39.190Z,19.70
2022-11-27T22:24:10.978Z,18.97
2022-11-27T22:26:40.756Z,17.10
2022-11-27T22:29:07.831Z,19.70
2022-11-27T22:31:35.012Z,18.53
2022-11-27T22:34:04.107Z,17.60
2022-11-27T22:36:34.983Z,16.50
2022-11-27T22:39:05.562Z,17.63
2022-11-27T22:41:36.678Z,18.53
2022-11-27T22:44:08.945Z,19.17
2022-11-27T22:46:39.478Z,18.00
2022-11-27T22:49:07.508Z,18.37
2022-11-27T22:51:36.609Z,17.53
2022-11-27T22:54:06.692Z,17.57
2022-11-27T22:56:34.216Z,17.03
2022-11-27T22:59:30.483Z,15.30
2022-11-27T23:01:49.407Z,17.90
2022-11-27T23:04:17.239Z,15.73
2022-11-27T23:06:48.233Z,18.80
2022-11-27T23:09:18.151Z,17.33
2022-11-27T23:11:45.524Z,18.20
2022-11-27T23:14:13.143Z,17.30
2022-11-27T23:16:40.589Z,15.53
2022-11-27T23:19:07.743Z,17.07
2022-11-27T23:21:37.705Z,16.90
2022-11-27T23:24:06.593Z,17.90
2022-11-27T23:26:34.339Z,17.10
2022-11-27T23:29:01.694Z,16.73
2022-11-27T23:31:34.337Z,18.63
2022-11-27T23:34:05.169Z,16.30
2022-11-27T23:36:33.101Z,16.90
2022-11-27T23:39:01.862Z,19.40
2022-11-27T23:41:31.399Z,17.77
2022-11-27T23:43:59.279Z,16.63
2022-11-27T23:46:29.188Z,18.60
2022-11-27T23:48:58.413Z,18.10
2022-11-27T23:51:28.580Z,17.80
2022-11-27T23:53:56.248Z,16.90
2022-11-27T23:56:25.989Z,18.27
2022-11-27T23:58:55.069Z,20.30
